createdAt,value
2022-12-26T00:00:25.219Z,3.1
2022-12-26T00:03:27.162Z,3.2
2022-12-26T00:06:29.153Z,3.1
2022-12-26T00:09:31.030Z,2.9
2022-12-26T00:12:33.001Z,2.8
2022-12-26T00:15:34.957Z,3.2
2022-12-26T00:18:36.916Z,2.9
2022-12-26T00:21:38.878Z,3.2
2022-12-26T00:24:40.839Z,3.2
2022-12-26T00:27:42.877Z,3.2
2022-12-26T00:30:44.762Z,3.2
2022-12-26T00:33:46.741Z,2.9
2022-12-26T00:36:48.702Z,2.9
2022-12-26T00:39:50.666Z,2.7
2022-12-26T00:42:52.644Z,3
2022-12-26T00:45:54.597Z,2.8
2022-12-26T00:48:56.553Z,3.2
2022-12-26T00:51:58.531Z,2.8
2022-12-26T00:55:00.479Z,3
2022-12-26T00:58:02.421Z,2.9
2022-12-26T01:01:04.481Z,2.8
2022-12-26T01:04:06.351Z,2.8
2022-12-26T01:07:08.316Z,2.5
2022-12-26T01:10:10.274Z,2.9
2022-12-26T01:13:12.224Z,2.7
2022-12-26T01:16:14.215Z,2.4
2022-12-26T01:19:16.157Z,2.9
2022-12-26T01:22:18.119Z,2.9
2022-12-26T01:25:20.065Z,3.1
2022-12-26T01:28:22.036Z,2.8
2022-12-26T01:31:24.089Z,3.1
2022-12-26T01:34:25.968Z,2.9
2022-12-26T01:37:27.937Z,2.5
2022-12-26T01:40:29.960Z,2.8
2022-12-26T01:43:31.958Z,2.7
2022-12-26T01:46:33.903Z,2.5
2022-12-26T01:49:35.856Z,2.5
2022-12-26T01:52:37.825Z,2.9
2022-12-26T01:55:39.767Z,2.6
2022-12-26T01:58:41.728Z,2.7
2022-12-26T02:01:43.780Z,3
2022-12-26T02:04:45.640Z,2.6
2022-12-26T02:07:47.607Z,2.4
2022-12-26T02:10:49.586Z,2.5
2022-12-26T02:13:51.521Z,3.1
2022-12-26T02:16:53.523Z,2.3
2022-12-26T02:19:55.472Z,2.7
2022-12-26T02:22:57.401Z,2.6
2022-12-26T02:25:59.401Z,2.3
2022-12-26T02:29:01.346Z,2.8
2022-12-26T02:32:03.381Z,2.9
2022-12-26T02:35:05.374Z,2.7
2022-12-26T02:38:07.228Z,2.5
2022-12-26T02:41:09.199Z,2.5
2022-12-26T02:44:11.214Z,2.5
2022-12-26T02:47:13.129Z,2.8
2022-12-26T02:50:15.083Z,2.5
2022-12-26T02:53:17.034Z,2.6
2022-12-26T02:56:18.995Z,2.8
2022-12-26T02:59:20.957Z,2.6
2022-12-26T03:02:23.063Z,2.2
2022-12-26T03:05:24.951Z,2.1
2022-12-26T03:08:26.923Z,2.4
2022-12-26T03:11:28.867Z,2.8
2022-12-26T03:14:30.837Z,2.5
2022-12-26T03:17:32.780Z,2.3
2022-12-26T03:20:34.754Z,2.1
2022-12-26T03:23:36.734Z,2.5
2022-12-26T03:26:38.666Z,2.3
2022-12-26T03:29:40.643Z,2.4
2022-12-26T03:32:42.597Z,2.3
2022-12-26T03:35:44.559Z,2.3
2022-12-26T03:38:46.509Z,2.3
2022-12-26T03:41:48.490Z,1.9
2022-12-26T03:44:53.840Z,2.4
2022-12-26T03:47:52.410Z,2.7
2022-12-26T03:50:54.358Z,2.3
2022-12-26T03:53:56.347Z,2.4
2022-12-26T03:56:58.292Z,2
2022-12-26T04:00:00.406Z,2.1
2022-12-26T04:03:02.231Z,2.2
2022-12-26T04:06:04.213Z,2.1
2022-12-26T04:09:06.171Z,2.3
2022-12-26T04:12:08.115Z,2.2
2022-12-26T04:15:10.086Z,2.1
2022-12-26T04:18:12.075Z,2.6
2022-12-26T04:21:14.045Z,2.2
2022-12-26T04:24:16.005Z,2
2022-12-26T04:27:17.980Z,2.4
2022-12-26T04:30:19.927Z,2.3
2022-12-26T04:33:22.047Z,2.2
2022-12-26T04:36:23.872Z,2.1
2022-12-26T04:39:25.832Z,2.4
2022-12-26T04:42:27.787Z,2.4
2022-12-26T04:45:29.742Z,2.5
2022-12-26T04:48:31.702Z,2.2
2022-12-26T04:51:33.655Z,2
2022-12-26T04:54:35.652Z,2
2022-12-26T04:57:37.595Z,1.9
2022-12-26T05:00:39.588Z,2.5
2022-12-26T05:03:41.560Z,2.4
2022-12-26T05:06:43.499Z,2.3
2022-12-26T05:09:45.442Z,2
2022-12-26T05:12:47.416Z,2.4
2022-12-26T05:15:49.395Z,2.4
2022-12-26T05:18:51.315Z,2.3
2022-12-26T05:21:53.266Z,2.2
2022-12-26T05:24:55.225Z,2.2
2022-12-26T05:27:57.191Z,2.1
2022-12-26T05:30:59.186Z,2.4
2022-12-26T05:34:01.157Z,2
2022-12-26T05:37:03.092Z,2.2
2022-12-26T05:40:05.049Z,2.3
2022-12-26T05:43:07.019Z,2.3
2022-12-26T05:46:09.065Z,2.1
2022-12-26T05:49:10.973Z,2
2022-12-26T05:52:12.915Z,2.1
2022-12-26T05:55:14.895Z,1.9
2022-12-26T05:58:16.853Z,2
2022-12-26T06:01:18.905Z,2.1
2022-12-26T06:04:20.782Z,1.7
2022-12-26T06:07:22.746Z,2.1
2022-12-26T06:10:24.699Z,2
2022-12-26T06:13:26.664Z,2.3
2022-12-26T06:16:28.673Z,1.8
2022-12-26T06:19:30.581Z,2
2022-12-26T06:22:33.469Z,2.1
2022-12-26T06:25:34.511Z,2.2
2022-12-26T06:28:36.483Z,2
2022-12-26T06:31:38.458Z,2.4
2022-12-26T06:34:40.402Z,1.8
2022-12-26T06:37:42.355Z,1.7
2022-12-26T06:40:44.330Z,2.2
2022-12-26T06:43:46.294Z,2.3
2022-12-26T06:46:48.342Z,2
2022-12-26T06:49:50.225Z,1.9
2022-12-26T06:52:52.344Z,2.1
2022-12-26T06:55:54.177Z,2.1
2022-12-26T06:58:56.142Z,1.8
2022-12-26T07:01:58.158Z,2
2022-12-26T07:05:00.075Z,2
2022-12-26T07:08:02.028Z,1.8
2022-12-26T07:11:04.025Z,2.2
2022-12-26T07:14:05.987Z,2.2
2022-12-26T07:17:07.967Z,2.6
2022-12-26T07:20:09.843Z,2.2
2022-12-26T07:23:11.815Z,2
2022-12-26T07:26:13.782Z,2.5
2022-12-26T07:29:15.720Z,2.5
2022-12-26T07:32:17.701Z,2.5
2022-12-26T07:35:19.655Z,2.2
2022-12-26T07:38:21.627Z,2.5
2022-12-26T07:41:23.584Z,2.6
2022-12-26T07:44:25.616Z,2.2
2022-12-26T07:47:27.477Z,2.3
2022-12-26T07:50:29.423Z,2.5
2022-12-26T07:53:31.379Z,2.3
2022-12-26T07:56:33.352Z,2.8
2022-12-26T07:59:35.317Z,2.7
2022-12-26T08:02:37.437Z,3
2022-12-26T08:05:39.248Z,2.6
2022-12-26T08:08:45.510Z,3.1
2022-12-26T08:11:43.211Z,3.2
2022-12-26T08:14:45.153Z,2.5
2022-12-26T08:17:47.103Z,2.6
2022-12-26T08:20:49.065Z,2.5
2022-12-26T08:23:51.031Z,2.7
2022-12-26T08:26:52.966Z,3.5
2022-12-26T08:29:54.918Z,3.1
2022-12-26T08:32:56.862Z,2.8
2022-12-26T08:35:58.834Z,3.4
2022-12-26T08:39:00.787Z,2.4
2022-12-26T08:42:02.740Z,2.7
2022-12-26T08:45:04.839Z,2.7
2022-12-26T08:48:06.666Z,3
2022-12-26T08:51:08.644Z,2.7
2022-12-26T08:54:10.610Z,2.9
2022-12-26T08:57:12.566Z,2.7
2022-12-26T09:00:14.559Z,3.3
2022-12-26T09:03:16.529Z,3.3
2022-12-26T09:06:18.499Z,3
2022-12-26T09:09:20.438Z,2.7
2022-12-26T09:12:22.475Z,3.7
2022-12-26T09:15:24.384Z,2.9
2022-12-26T09:18:26.375Z,2.9
2022-12-26T09:21:28.316Z,2.3
2022-12-26T09:24:30.283Z,3.1
2022-12-26T09:27:32.233Z,2.7
2022-12-26T09:30:34.287Z,2.7
2022-12-26T09:33:36.235Z,2.5
2022-12-26T09:36:38.283Z,3
2022-12-26T09:39:40.097Z,2.6
2022-12-26T09:42:42.161Z,3.1
2022-12-26T09:45:44.183Z,2.7
2022-12-26T09:48:46.098Z,3
2022-12-26T09:51:48.036Z,2.6
2022-12-26T09:54:50.005Z,2.7
2022-12-26T09:57:51.944Z,2.8
2022-12-26T10:00:53.901Z,2.6
2022-12-26T10:03:55.873Z,2.7
2022-12-26T10:06:57.825Z,2.5
2022-12-26T10:09:59.779Z,2.2
2022-12-26T10:13:01.749Z,2.4
2022-12-26T10:16:03.750Z,2.1
2022-12-26T10:19:05.655Z,2.1
2022-12-26T10:22:07.642Z,1.9
2022-12-26T10:25:09.595Z,2.2
2022-12-26T10:28:11.542Z,2
2022-12-26T10:31:13.600Z,2.4
2022-12-26T10:34:15.488Z,1.9
2022-12-26T10:37:17.436Z,2.4
2022-12-26T10:40:19.444Z,2.2
2022-12-26T10:43:21.359Z,1.9
2022-12-26T10:46:23.379Z,1.8
2022-12-26T10:49:25.274Z,1.6
2022-12-26T10:52:27.226Z,1.7
2022-12-26T10:55:31.759Z,1.7
2022-12-26T10:58:31.145Z,1.4
2022-12-26T11:01:33.205Z,1.7
2022-12-26T11:05:10.315Z,1.4
2022-12-26T11:07:37.024Z,1.5
2022-12-26T11:10:38.981Z,1.3
2022-12-26T11:13:40.960Z,1.6
2022-12-26T11:16:42.906Z,1.2
2022-12-26T11:19:44.860Z,1.5
2022-12-26T11:22:46.838Z,1.6
2022-12-26T11:25:48.813Z,1.6
2022-12-26T11:28:50.784Z,1.5
2022-12-26T11:31:55.894Z,1.5
2022-12-26T11:34:57.850Z,1.3
2022-12-26T11:37:59.794Z,1.3
2022-12-26T11:41:01.746Z,1.1
2022-12-26T11:44:03.728Z,1
2022-12-26T11:47:05.673Z,1.1
2022-12-26T11:50:07.649Z,1.3
2022-12-26T11:53:09.604Z,0.9
2022-12-26T11:56:11.563Z,1.1
2022-12-26T11:59:13.570Z,0.9
2022-12-26T12:02:15.507Z,1.4
2022-12-26T12:05:17.456Z,1.7
2022-12-26T12:08:19.419Z,1.2
2022-12-26T12:11:21.379Z,1.2
2022-12-26T12:14:23.332Z,1.2
2022-12-26T12:17:25.295Z,1.2
2022-12-26T12:20:27.268Z,1.1
2022-12-26T12:23:29.271Z,1
2022-12-26T12:26:31.220Z,1.6
2022-12-26T12:29:33.210Z,1.4
2022-12-26T12:32:35.151Z,1.6
2022-12-26T12:35:37.114Z,1.2
2022-12-26T12:38:39.068Z,1.2
2022-12-26T12:41:41.017Z,1.7
2022-12-26T12:44:43.019Z,1.2
2022-12-26T12:47:44.941Z,1
2022-12-26T12:50:49.515Z,1.3
2022-12-26T12:53:48.894Z,1.1
2022-12-26T12:56:50.820Z,1.1
2022-12-26T12:59:52.787Z,1.3
2022-12-26T13:02:54.884Z,1.6
2022-12-26T13:05:56.725Z,1.6
2022-12-26T13:08:58.678Z,1.4
2022-12-26T13:12:00.627Z,1.6
2022-12-26T13:15:02.586Z,1.5
2022-12-26T13:18:04.541Z,1.6
2022-12-26T13:21:06.500Z,1.4
2022-12-26T13:24:08.458Z,1.6
2022-12-26T13:27:10.416Z,1.5
2022-12-26T13:30:12.521Z,1.3
2022-12-26T13:33:14.511Z,1.1
2022-12-26T13:36:16.349Z,1.4
2022-12-26T13:39:18.251Z,1.2
2022-12-26T13:42:20.246Z,1.2
2022-12-26T13:45:22.174Z,1.2
2022-12-26T13:48:24.159Z,1.2
2022-12-26T13:51:26.095Z,0.8
2022-12-26T13:54:28.057Z,1.2
2022-12-26T13:57:30.023Z,1.1
2022-12-26T14:00:31.979Z,0.9
2022-12-26T14:03:34.070Z,1
2022-12-26T14:06:35.897Z,1.3
2022-12-26T14:09:37.851Z,1.3
2022-12-26T14:12:39.794Z,1
2022-12-26T14:15:41.767Z,0.9
2022-12-26T14:18:43.724Z,1
2022-12-26T14:21:45.684Z,0.7
2022-12-26T14:24:47.643Z,0.8
2022-12-26T14:27:49.597Z,0.7
2022-12-26T14:30:51.631Z,0.6
2022-12-26T14:33:53.541Z,0.5
2022-12-26T14:36:55.480Z,0.5
2022-12-26T14:39:57.451Z,0.5
2022-12-26T14:42:59.423Z,0.7
2022-12-26T14:46:01.443Z,0.6
2022-12-26T14:49:03.363Z,0.8
2022-12-26T14:52:05.305Z,0.9
2022-12-26T14:55:07.279Z,0.8
2022-12-26T14:58:09.237Z,0.9
2022-12-26T15:01:11.277Z,1.1
2022-12-26T15:04:13.194Z,0.9
2022-12-26T15:07:20.275Z,1.1
2022-12-26T15:10:17.115Z,0.9
2022-12-26T15:13:19.089Z,0.9
2022-12-26T15:16:21.213Z,0.9
2022-12-26T15:19:23.030Z,1.1
2022-12-26T15:22:24.986Z,1
2022-12-26T15:25:26.944Z,0.9
2022-12-26T15:28:28.900Z,1.1
2022-12-26T15:31:30.926Z,0.9
2022-12-26T15:34:32.855Z,0.9
2022-12-26T15:37:34.806Z,0.7
2022-12-26T15:40:36.757Z,0.7
2022-12-26T15:43:38.726Z,0.6
2022-12-26T15:46:40.724Z,0.6
2022-12-26T15:49:42.680Z,0.5
2022-12-26T15:52:44.647Z,1
2022-12-26T15:55:46.603Z,0.9
2022-12-26T15:58:48.548Z,1
2022-12-26T16:01:50.573Z,0.7
2022-12-26T16:04:52.565Z,0.7
2022-12-26T16:07:54.440Z,0.5
2022-12-26T16:10:56.411Z,0.9
2022-12-26T16:13:58.379Z,0.7
2022-12-26T16:17:00.345Z,0.8
2022-12-26T16:20:02.295Z,0.7
2022-12-26T16:23:04.256Z,0.9
2022-12-26T16:26:06.223Z,0.5
2022-12-26T16:29:08.204Z,0.7
2022-12-26T16:32:10.141Z,0.6
2022-12-26T16:35:12.106Z,0.8
2022-12-26T16:38:14.056Z,0.8
2022-12-26T16:41:16.035Z,1
2022-12-26T16:44:18.047Z,1.1
2022-12-26T16:47:20.090Z,1
2022-12-26T16:50:21.924Z,0.9
2022-12-26T16:53:23.887Z,1
2022-12-26T16:56:25.848Z,0.9
2022-12-26T16:59:27.808Z,0.8
2022-12-26T17:02:29.903Z,0.8
2022-12-26T17:05:31.729Z,1.2
2022-12-26T17:08:33.666Z,1
2022-12-26T17:11:35.641Z,1
2022-12-26T17:14:37.607Z,1.2
2022-12-26T17:17:39.559Z,0.5
2022-12-26T17:20:41.542Z,0.9
2022-12-26T17:23:43.484Z,0.8
2022-12-26T17:26:45.465Z,0.8
2022-12-26T17:29:47.468Z,0.8
2022-12-26T17:32:49.387Z,0.8
2022-12-26T17:36:45.276Z,1.1
2022-12-26T17:38:53.285Z,0.9
2022-12-26T17:41:55.253Z,0.7
2022-12-26T17:44:57.206Z,1.1
2022-12-26T17:47:59.170Z,1.1
2022-12-26T17:51:01.148Z,0.9
2022-12-26T17:54:03.068Z,1.1
2022-12-26T17:57:05.060Z,1
2022-12-26T18:00:07.009Z,1.2
2022-12-26T18:03:08.963Z,1
2022-12-26T18:06:10.920Z,0.8
2022-12-26T18:09:12.879Z,0.8
2022-12-26T18:12:14.825Z,1.2
2022-12-26T18:15:16.797Z,0.9
2022-12-26T18:18:18.750Z,0.9
2022-12-26T18:21:20.719Z,1.3
2022-12-26T18:24:22.836Z,0.9
2022-12-26T18:27:24.649Z,0.8
2022-12-26T18:30:26.636Z,0.8
2022-12-26T18:33:28.552Z,1.1
2022-12-26T18:36:30.525Z,0.9
2022-12-26T18:39:32.477Z,0.8
2022-12-26T18:42:34.442Z,1.1
2022-12-26T18:45:36.418Z,0.8
2022-12-26T18:48:38.363Z,1.2
2022-12-26T18:51:40.439Z,1.1
2022-12-26T18:54:42.267Z,1.5
2022-12-26T18:57:44.226Z,1.2
2022-12-26T19:00:46.231Z,1.3
2022-12-26T19:03:48.225Z,1
2022-12-26T19:06:50.114Z,1.2
2022-12-26T19:09:52.055Z,1.1
2022-12-26T19:12:54.459Z,1.1
2022-12-26T19:15:56.048Z,1.6
2022-12-26T19:18:57.961Z,4.1
2022-12-26T19:21:59.927Z,4.3
2022-12-26T19:25:01.920Z,5.7
2022-12-26T19:28:03.847Z,4.7
2022-12-26T19:31:05.798Z,4.4
2022-12-26T19:34:07.755Z,3.1
2022-12-26T19:37:09.717Z,2.6
2022-12-26T19:40:11.683Z,2.2
2022-12-26T19:43:13.643Z,1.9
2022-12-26T19:46:15.736Z,2
2022-12-26T19:49:17.564Z,2
2022-12-26T19:52:19.524Z,2
2022-12-26T19:55:21.492Z,1.7
2022-12-26T19:58:23.461Z,1.8
2022-12-26T20:01:25.508Z,1.5
2022-12-26T20:04:27.369Z,1.8
2022-12-26T20:07:29.323Z,1.7
2022-12-26T20:10:31.290Z,1.3
2022-12-26T20:13:33.285Z,1.9
2022-12-26T20:17:04.189Z,1.6
2022-12-26T20:19:37.229Z,1.8
2022-12-26T20:22:39.145Z,1.8
2022-12-26T20:25:41.091Z,1.7
2022-12-26T20:28:43.067Z,6.5
2022-12-26T20:31:45.047Z,3.5
2022-12-26T20:34:46.987Z,2.8
2022-12-26T20:37:48.978Z,2.3
2022-12-26T20:40:50.935Z,2.2
2022-12-26T20:43:53.080Z,2.4
2022-12-26T20:46:54.888Z,2.1
2022-12-26T20:49:56.885Z,2.2
2022-12-26T20:52:58.831Z,2.3
2022-12-26T20:56:00.776Z,1.6
2022-12-26T20:59:02.761Z,1.3
2022-12-26T21:02:04.888Z,1.1
2022-12-26T21:05:07.050Z,1.3
2022-12-26T21:08:08.694Z,1.3
2022-12-26T21:11:10.659Z,1.3
2022-12-26T21:14:12.624Z,1.1
2022-12-26T21:17:14.644Z,1.1
2022-12-26T21:20:16.569Z,1.2
2022-12-26T21:23:18.519Z,1.3
2022-12-26T21:26:20.484Z,0.8
2022-12-26T21:29:22.467Z,1.1
2022-12-26T21:32:24.422Z,0.8
2022-12-26T21:35:26.384Z,1.1
2022-12-26T21:38:28.346Z,1.4
2022-12-26T21:41:30.300Z,1.2
2022-12-26T21:44:32.280Z,1.4
2022-12-26T21:47:34.231Z,1.3
2022-12-26T21:50:36.179Z,1.3
2022-12-26T21:53:38.159Z,1.7
2022-12-26T21:56:40.132Z,1.3
2022-12-26T21:59:42.080Z,1.2
2022-12-26T22:02:44.361Z,1.1
2022-12-26T22:05:46.012Z,0.9
2022-12-26T22:08:47.969Z,0.9
2022-12-26T22:11:49.929Z,1.2
2022-12-26T22:14:51.889Z,0.9
2022-12-26T22:17:53.858Z,1.2
2022-12-26T22:20:55.814Z,2.9
2022-12-26T22:23:57.766Z,12.4
2022-12-26T22:26:59.739Z,4.9
2022-12-26T22:30:01.685Z,4
2022-12-26T22:33:03.653Z,6.7
2022-12-26T22:36:05.624Z,3.1
2022-12-26T22:39:07.562Z,1.9
2022-12-26T22:42:09.659Z,2
2022-12-26T22:45:11.476Z,1.6
2022-12-26T22:48:13.447Z,1.5
2022-12-26T22:51:15.507Z,1.7
2022-12-26T22:54:17.390Z,1.6
2022-12-26T22:57:19.354Z,1.5
2022-12-26T23:00:21.344Z,1.2
2022-12-26T23:03:23.288Z,1.7
2022-12-26T23:06:25.236Z,1.3
2022-12-26T23:09:27.200Z,1.3
2022-12-26T23:12:29.163Z,1.2
2022-12-26T23:15:31.114Z,1.5
2022-12-26T23:18:33.092Z,0.9
2022-12-26T23:21:35.055Z,2
2022-12-26T23:24:37.010Z,1.9
2022-12-26T23:27:38.969Z,1.8
2022-12-26T23:30:40.927Z,2.3
2022-12-26T23:33:42.919Z,2.5
2022-12-26T23:36:44.835Z,2.5
2022-12-26T23:39:46.799Z,2
2022-12-26T23:42:48.755Z,2
2022-12-26T23:45:50.701Z,1.7
2022-12-26T23:48:52.688Z,1.6
2022-12-26T23:51:54.676Z,1.4
2022-12-26T23:54:56.672Z,1.8
2022-12-26T23:57:58.608Z,1.4
